sensor_id;sensor_type;location;lat;lon;timestamp;pressure;altitude;pressure_sealevel;temperature;humidity
20889;BME280;10604;51.976;7.594;2023-07-13T00:01:57;100672.53;;;19.35;72.50
20889;BME280;10604;51.976;7.594;2023-07-13T00:04:23;100670.81;;;19.34;72.59
20889;BME280;10604;51.976;7.594;2023-07-13T00:06:50;100662.34;;;19.27;73.68
20889;BME280;10604;51.976;7.594;2023-07-13T00:09:16;100657.88;;;19.28;72.86
20889;BME280;10604;51.976;7.594;2023-07-13T00:11:41;100657.09;;;19.26;72.75
20889;BME280;10604;51.976;7.594;2023-07-13T00:14:07;100663.13;;;19.29;72.62
20889;BME280;10604;51.976;7.594;2023-07-13T00:16:36;100668.09;;;19.08;73.52
20889;BME280;10604;51.976;7.594;2023-07-13T00:19:02;100671.22;;;19.15;73.08
20889;BME280;10604;51.976;7.594;2023-07-13T00:21:28;100672.19;;;18.87;74.27
20889;BME280;10604;51.976;7.594;2023-07-13T00:23:53;100664.56;;;19.08;74.16
20889;BME280;10604;51.976;7.594;2023-07-13T00:26:18;100668.19;;;19.07;73.79
20889;BME280;10604;51.976;7.594;2023-07-13T00:28:43;100669.22;;;19.04;74.25
20889;BME280;10604;51.976;7.594;2023-07-13T00:31:09;100675.41;;;18.92;73.46
20889;BME280;10604;51.976;7.594;2023-07-13T00:33:35;100670.28;;;18.89;74.64
20889;BME280;10604;51.976;7.594;2023-07-13T00:36:00;100676.22;;;18.80;75.10
20889;BME280;10604;51.976;7.594;2023-07-13T00:38:26;100680.03;;;18.76;75.24
20889;BME280;10604;51.976;7.594;2023-07-13T00:40:51;100678.97;;;18.78;74.81
20889;BME280;10604;51.976;7.594;2023-07-13T00:43:17;100684.25;;;18.66;75.40
20889;BME280;10604;51.976;7.594;2023-07-13T00:48:09;100689.78;;;18.34;76.43
20889;BME280;10604;51.976;7.594;2023-07-13T00:50:35;100683.34;;;18.24;76.97
20889;BME280;10604;51.976;7.594;2023-07-13T00:53:01;100683.81;;;18.17;77.13
20889;BME280;10604;51.976;7.594;2023-07-13T00:55:27;100679.88;;;17.94;77.35
20889;BME280;10604;51.976;7.594;2023-07-13T00:57:52;100677.78;;;17.99;77.97
20889;BME280;10604;51.976;7.594;2023-07-13T01:00:18;100677.38;;;17.77;78.77
20889;BME280;10604;51.976;7.594;2023-07-13T01:02:46;100679.09;;;17.78;78.64
20889;BME280;10604;51.976;7.594;2023-07-13T01:05:12;100674.94;;;17.88;79.05
20889;BME280;10604;51.976;7.594;2023-07-13T01:07:39;100667.78;;;17.74;78.86
20889;BME280;10604;51.976;7.594;2023-07-13T01:10:05;100672.03;;;17.77;78.92
20889;BME280;10604;51.976;7.594;2023-07-13T01:12:30;100672.25;;;17.88;78.70
20889;BME280;10604;51.976;7.594;2023-07-13T01:14:56;100680.03;;;17.63;78.58
20889;BME280;10604;51.976;7.594;2023-07-13T01:17:22;100678.34;;;17.76;78.23
20889;BME280;10604;51.976;7.594;2023-07-13T01:19:47;100670.03;;;17.66;78.42
20889;BME280;10604;51.976;7.594;2023-07-13T01:22:13;100669.84;;;17.69;78.90
20889;BME280;10604;51.976;7.594;2023-07-13T01:24:40;100669.34;;;17.63;79.08
20889;BME280;10604;51.976;7.594;2023-07-13T01:27:06;100677.78;;;17.55;79.32
20889;BME280;10604;51.976;7.594;2023-07-13T01:29:32;100673.00;;;17.62;79.10
20889;BME280;10604;51.976;7.594;2023-07-13T01:31:58;100666.06;;;17.73;78.98
20889;BME280;10604;51.976;7.594;2023-07-13T01:34:23;100657.66;;;17.65;79.00
20889;BME280;10604;51.976;7.594;2023-07-13T01:36:48;100652.63;;;17.75;78.99
20889;BME280;10604;51.976;7.594;2023-07-13T01:39:13;100658.69;;;17.77;78.93
20889;BME280;10604;51.976;7.594;2023-07-13T01:41:40;100660.41;;;17.64;78.63
20889;BME280;10604;51.976;7.594;2023-07-13T01:44:05;100659.69;;;17.76;78.75
20889;BME280;10604;51.976;7.594;2023-07-13T01:46:31;100659.38;;;17.66;78.55
20889;BME280;10604;51.976;7.594;2023-07-13T01:48:56;100660.75;;;17.57;79.12
20889;BME280;10604;51.976;7.594;2023-07-13T01:51:21;100659.56;;;17.77;78.59
20889;BME280;10604;51.976;7.594;2023-07-13T01:53:46;100669.50;;;17.75;78.54
20889;BME280;10604;51.976;7.594;2023-07-13T01:56:12;100671.69;;;17.83;77.78
20889;BME280;10604;51.976;7.594;2023-07-13T01:58:37;100666.06;;;17.73;78.20
20889;BME280;10604;51.976;7.594;2023-07-13T02:01:02;100664.81;;;17.79;78.98
20889;BME280;10604;51.976;7.594;2023-07-13T02:03:28;100673.97;;;17.75;78.67
20889;BME280;10604;51.976;7.594;2023-07-13T02:05:53;100683.41;;;17.94;78.65
20889;BME280;10604;51.976;7.594;2023-07-13T02:08:18;100682.47;;;17.95;78.40
20889;BME280;10604;51.976;7.594;2023-07-13T02:10:43;100680.75;;;17.94;78.08
20889;BME280;10604;51.976;7.594;2023-07-13T02:13:09;100680.28;;;17.88;78.42
20889;BME280;10604;51.976;7.594;2023-07-13T02:15:34;100686.16;;;17.79;78.52
20889;BME280;10604;51.976;7.594;2023-07-13T02:18:02;100674.91;;;17.74;77.87
20889;BME280;10604;51.976;7.594;2023-07-13T02:20:28;100683.72;;;17.90;77.43
20889;BME280;10604;51.976;7.594;2023-07-13T02:22:53;100688.06;;;17.77;77.38
20889;BME280;10604;51.976;7.594;2023-07-13T02:25:19;100686.00;;;17.82;76.97
20889;BME280;10604;51.976;7.594;2023-07-13T02:27:44;100675.09;;;17.85;76.62
20889;BME280;10604;51.976;7.594;2023-07-13T02:30:10;100684.25;;;17.81;76.30
20889;BME280;10604;51.976;7.594;2023-07-13T02:32:36;100678.38;;;17.90;75.80
20889;BME280;10604;51.976;7.594;2023-07-13T02:35:01;100672.53;;;17.83;75.67
20889;BME280;10604;51.976;7.594;2023-07-13T02:37:26;100680.66;;;17.96;74.87
20889;BME280;10604;51.976;7.594;2023-07-13T02:39:52;100668.53;;;17.90;74.86
20889;BME280;10604;51.976;7.594;2023-07-13T02:42:17;100672.66;;;17.96;74.97
20889;BME280;10604;51.976;7.594;2023-07-13T02:44:42;100675.31;;;17.82;74.25
20889;BME280;10604;51.976;7.594;2023-07-13T02:47:07;100669.38;;;17.91;73.86
20889;BME280;10604;51.976;7.594;2023-07-13T02:49:33;100675.69;;;17.76;74.46
20889;BME280;10604;51.976;7.594;2023-07-13T02:51:58;100665.66;;;17.79;74.54
20889;BME280;10604;51.976;7.594;2023-07-13T02:54:23;100673.88;;;17.90;74.42
20889;BME280;10604;51.976;7.594;2023-07-13T02:56:48;100675.72;;;17.90;73.95
20889;BME280;10604;51.976;7.594;2023-07-13T02:59:14;100669.03;;;17.97;73.74
20889;BME280;10604;51.976;7.594;2023-07-13T03:01:39;100678.16;;;17.93;73.88
20889;BME280;10604;51.976;7.594;2023-07-13T03:04:05;100677.78;;;17.99;72.98
20889;BME280;10604;51.976;7.594;2023-07-13T03:06:30;100685.22;;;17.94;72.74
20889;BME280;10604;51.976;7.594;2023-07-13T03:08:56;100678.53;;;17.87;72.60
20889;BME280;10604;51.976;7.594;2023-07-13T03:11:21;100685.78;;;17.85;73.04
20889;BME280;10604;51.976;7.594;2023-07-13T03:13:46;100674.91;;;17.74;72.94
20889;BME280;10604;51.976;7.594;2023-07-13T03:16:12;100682.34;;;17.69;73.19
20889;BME280;10604;51.976;7.594;2023-07-13T03:18:37;100686.69;;;17.70;73.64
20889;BME280;10604;51.976;7.594;2023-07-13T03:21:03;100684.63;;;17.75;73.13
20889;BME280;10604;51.976;7.594;2023-07-13T03:23:28;100692.94;;;17.84;72.96
20889;BME280;10604;51.976;7.594;2023-07-13T03:26:01;100689.19;;;17.73;72.52
20889;BME280;10604;51.976;7.594;2023-07-13T03:28:26;100694.19;;;17.93;72.06
20889;BME280;10604;51.976;7.594;2023-07-13T03:30:58;100700.19;;;17.52;73.22
20889;BME280;10604;51.976;7.594;2023-07-13T03:33:24;100695.91;;;17.34;74.26
20889;BME280;10604;51.976;7.594;2023-07-13T03:35:49;100702.06;;;17.50;73.84
20889;BME280;10604;51.976;7.594;2023-07-13T03:38:14;100705.16;;;17.58;73.53
20889;BME280;10604;51.976;7.594;2023-07-13T03:40:40;100701.03;;;17.53;73.23
20889;BME280;10604;51.976;7.594;2023-07-13T03:43:05;100696.94;;;17.47;73.29
20889;BME280;10604;51.976;7.594;2023-07-13T03:45:30;100708.97;;;17.54;73.14
20889;BME280;10604;51.976;7.594;2023-07-13T03:47:55;100715.41;;;17.50;73.11
20889;BME280;10604;51.976;7.594;2023-07-13T03:50:21;100722.72;;;17.63;73.12
20889;BME280;10604;51.976;7.594;2023-07-13T03:52:46;100715.00;;;17.42;73.56
20889;BME280;10604;51.976;7.594;2023-07-13T03:55:11;100711.34;;;17.59;73.14
20889;BME280;10604;51.976;7.594;2023-07-13T03:57:36;100707.78;;;17.44;73.11
20889;BME280;10604;51.976;7.594;2023-07-13T04:00:02;100706.34;;;17.39;73.17
20889;BME280;10604;51.976;7.594;2023-07-13T04:02:27;100715.41;;;17.50;72.55
20889;BME280;10604;51.976;7.594;2023-07-13T04:04:52;100719.09;;;17.64;72.50
20889;BME280;10604;51.976;7.594;2023-07-13T04:07:19;100720.28;;;17.74;72.21
20889;BME280;10604;51.976;7.594;2023-07-13T04:09:44;100720.53;;;17.39;72.54
20889;BME280;10604;51.976;7.594;2023-07-13T04:12:09;100721.53;;;17.52;72.31
20889;BME280;10604;51.976;7.594;2023-07-13T04:14:35;100724.66;;;17.29;72.63
20889;BME280;10604;51.976;7.594;2023-07-13T04:17:00;100720.69;;;17.36;73.08
20889;BME280;10604;51.976;7.594;2023-07-13T04:19:25;100731.66;;;17.16;73.71
20889;BME280;10604;51.976;7.594;2023-07-13T04:21:50;100726.75;;;17.24;74.00
20889;BME280;10604;51.976;7.594;2023-07-13T04:24:15;100725.00;;;17.39;73.62
20889;BME280;10604;51.976;7.594;2023-07-13T04:26:41;100730.28;;;17.54;73.02
20889;BME280;10604;51.976;7.594;2023-07-13T04:29:06;100727.38;;;17.43;73.49
20889;BME280;10604;51.976;7.594;2023-07-13T04:31:32;100735.66;;;17.39;73.49
20889;BME280;10604;51.976;7.594;2023-07-13T04:33:57;100729.56;;;17.37;73.25
20889;BME280;10604;51.976;7.594;2023-07-13T04:36:24;100733.03;;;17.69;72.83
20889;BME280;10604;51.976;7.594;2023-07-13T04:38:52;100735.56;;;18.14;71.26
20889;BME280;10604;51.976;7.594;2023-07-13T04:41:17;100742.81;;;18.40;70.23
20889;BME280;10604;51.976;7.594;2023-07-13T04:43:42;100747.06;;;18.59;69.08
20889;BME280;10604;51.976;7.594;2023-07-13T04:46:09;100743.00;;;18.94;68.31
20889;BME280;10604;51.976;7.594;2023-07-13T04:48:36;100738.38;;;19.10;67.52
20889;BME280;10604;51.976;7.594;2023-07-13T04:51:01;100739.13;;;19.12;67.00
20889;BME280;10604;51.976;7.594;2023-07-13T04:53:27;100743.50;;;19.13;66.92
20889;BME280;10604;51.976;7.594;2023-07-13T04:55:52;100747.22;;;18.84;67.61
20889;BME280;10604;51.976;7.594;2023-07-13T04:58:18;100749.72;;;19.14;67.09
20889;BME280;10604;51.976;7.594;2023-07-13T05:00:43;100751.97;;;19.20;66.83
20889;BME280;10604;51.976;7.594;2023-07-13T05:03:08;100753.19;;;19.29;67.25
20889;BME280;10604;51.976;7.594;2023-07-13T05:05:33;100757.34;;;19.47;66.65
20889;BME280;10604;51.976;7.594;2023-07-13T05:07:59;100754.16;;;19.81;64.87
20889;BME280;10604;51.976;7.594;2023-07-13T05:10:24;100749.53;;;19.83;65.24
20889;BME280;10604;51.976;7.594;2023-07-13T05:12:50;100757.69;;;19.28;66.14
20889;BME280;10604;51.976;7.594;2023-07-13T05:15:15;100760.34;;;19.01;67.06
20889;BME280;10604;51.976;7.594;2023-07-13T05:17:41;100759.41;;;19.29;67.52
20889;BME280;10604;51.976;7.594;2023-07-13T05:20:07;100767.44;;;19.56;65.80
20889;BME280;10604;51.976;7.594;2023-07-13T05:22:32;100761.38;;;19.40;66.47
20889;BME280;10604;51.976;7.594;2023-07-13T05:25:00;100757.66;;;19.15;67.45
20889;BME280;10604;51.976;7.594;2023-07-13T05:27:25;100763.81;;;19.03;68.71
20889;BME280;10604;51.976;7.594;2023-07-13T05:29:50;100771.66;;;18.50;70.06
20889;BME280;10604;51.976;7.594;2023-07-13T05:32:16;100778.56;;;18.68;70.18
20889;BME280;10604;51.976;7.594;2023-07-13T05:34:42;100776.97;;;18.92;69.51
20889;BME280;10604;51.976;7.594;2023-07-13T05:37:07;100779.31;;;19.25;69.50
20889;BME280;10604;51.976;7.594;2023-07-13T05:39:33;100783.44;;;19.43;68.68
20889;BME280;10604;51.976;7.594;2023-07-13T05:41:58;100784.88;;;19.49;68.15
20889;BME280;10604;51.976;7.594;2023-07-13T05:44:23;100787.94;;;19.43;68.09
20889;BME280;10604;51.976;7.594;2023-07-13T05:46:48;100780.41;;;19.35;68.45
20889;BME280;10604;51.976;7.594;2023-07-13T05:49:14;100788.38;;;19.23;68.59
20889;BME280;10604;51.976;7.594;2023-07-13T05:51:39;100777.88;;;19.20;68.90
20889;BME280;10604;51.976;7.594;2023-07-13T05:54:04;100794.09;;;19.31;68.93
20889;BME280;10604;51.976;7.594;2023-07-13T05:56:30;100794.06;;;19.84;68.03
20889;BME280;10604;51.976;7.594;2023-07-13T05:58:55;100793.72;;;20.16;67.48
20889;BME280;10604;51.976;7.594;2023-07-13T06:01:21;100796.78;;;19.97;67.26
20889;BME280;10604;51.976;7.594;2023-07-13T06:03:47;100796.47;;;19.89;67.73
20889;BME280;10604;51.976;7.594;2023-07-13T06:06:13;100806.00;;;19.93;67.17
20889;BME280;10604;51.976;7.594;2023-07-13T06:08:38;100805.00;;;19.81;67.13
20889;BME280;10604;51.976;7.594;2023-07-13T06:11:07;100807.25;;;19.48;68.50
20889;BME280;10604;51.976;7.594;2023-07-13T06:13:33;100803.50;;;19.90;67.70
20889;BME280;10604;51.976;7.594;2023-07-13T06:15:59;100803.56;;;20.15;67.08
20889;BME280;10604;51.976;7.594;2023-07-13T06:18:25;100800.19;;;20.51;65.95
20889;BME280;10604;51.976;7.594;2023-07-13T06:20:50;100803.13;;;20.09;66.08
20889;BME280;10604;51.976;7.594;2023-07-13T06:23:15;100800.22;;;20.12;66.59
20889;BME280;10604;51.976;7.594;2023-07-13T06:25:40;100805.31;;;19.89;67.86
20889;BME280;10604;51.976;7.594;2023-07-13T06:28:05;100811.31;;;19.80;67.92
20889;BME280;10604;51.976;7.594;2023-07-13T06:30:31;100802.28;;;20.21;67.66
20889;BME280;10604;51.976;7.594;2023-07-13T06:32:56;100801.66;;;20.17;67.09
20889;BME280;10604;51.976;7.594;2023-07-13T06:35:22;100811.25;;;19.94;67.76
20889;BME280;10604;51.976;7.594;2023-07-13T06:37:47;100811.91;;;20.11;67.39
20889;BME280;10604;51.976;7.594;2023-07-13T06:40:12;100815.78;;;20.32;67.43
20889;BME280;10604;51.976;7.594;2023-07-13T06:42:38;100814.91;;;20.19;67.74
20889;BME280;10604;51.976;7.594;2023-07-13T06:45:03;100812.50;;;20.66;67.92
20889;BME280;10604;51.976;7.594;2023-07-13T06:47:29;100818.28;;;20.86;65.99
20889;BME280;10604;51.976;7.594;2023-07-13T06:49:54;100821.03;;;20.97;67.73
20889;BME280;10604;51.976;7.594;2023-07-13T06:52:19;100818.50;;;20.70;66.13
20889;BME280;10604;51.976;7.594;2023-07-13T06:54:44;100830.06;;;20.96;66.30
20889;BME280;10604;51.976;7.594;2023-07-13T06:57:10;100833.88;;;21.54;65.99
20889;BME280;10604;51.976;7.594;2023-07-13T06:59:35;100823.13;;;21.54;63.72
20889;BME280;10604;51.976;7.594;2023-07-13T07:02:00;100836.59;;;21.88;63.40
20889;BME280;10604;51.976;7.594;2023-07-13T07:04:25;100838.09;;;22.16;62.06
20889;BME280;10604;51.976;7.594;2023-07-13T07:06:51;100834.88;;;22.11;62.22
20889;BME280;10604;51.976;7.594;2023-07-13T07:09:16;100835.78;;;21.88;61.82
20889;BME280;10604;51.976;7.594;2023-07-13T07:11:41;100832.84;;;21.91;61.86
20889;BME280;10604;51.976;7.594;2023-07-13T07:14:07;100830.25;;;22.13;61.46
20889;BME280;10604;51.976;7.594;2023-07-13T07:16:32;100840.03;;;22.14;61.24
20889;BME280;10604;51.976;7.594;2023-07-13T07:18:57;100838.47;;;21.88;61.92
20889;BME280;10604;51.976;7.594;2023-07-13T07:21:23;100847.25;;;21.42;63.01
20889;BME280;10604;51.976;7.594;2023-07-13T07:23:48;100856.06;;;21.44;62.71
20889;BME280;10604;51.976;7.594;2023-07-13T07:26:13;100843.81;;;21.40;62.16
20889;BME280;10604;51.976;7.594;2023-07-13T07:28:39;100855.25;;;21.31;62.61
20889;BME280;10604;51.976;7.594;2023-07-13T07:31:04;100859.94;;;21.88;62.49
20889;BME280;10604;51.976;7.594;2023-07-13T07:33:29;100851.84;;;22.47;60.83
20889;BME280;10604;51.976;7.594;2023-07-13T07:35:55;100861.88;;;21.86;60.23
20889;BME280;10604;51.976;7.594;2023-07-13T07:38:20;100852.50;;;21.44;61.83
20889;BME280;10604;51.976;7.594;2023-07-13T07:40:45;100853.47;;;22.14;60.92
20889;BME280;10604;51.976;7.594;2023-07-13T07:43:11;100855.59;;;22.90;58.43
20889;BME280;10604;51.976;7.594;2023-07-13T07:45:38;100860.22;;;23.33;56.90
20889;BME280;10604;51.976;7.594;2023-07-13T07:48:03;100849.50;;;22.99;57.50
20889;BME280;10604;51.976;7.594;2023-07-13T07:50:29;100856.81;;;23.85;56.62
20889;BME280;10604;51.976;7.594;2023-07-13T07:52:55;100855.38;;;24.34;54.05
20889;BME280;10604;51.976;7.594;2023-07-13T07:55:23;100856.84;;;24.06;54.03
20889;BME280;10604;51.976;7.594;2023-07-13T07:57:50;100845.28;;;24.15;54.66
20889;BME280;10604;51.976;7.594;2023-07-13T08:00:15;100856.94;;;23.84;54.48
20889;BME280;10604;51.976;7.594;2023-07-13T08:02:41;100848.69;;;23.53;54.44
20889;BME280;10604;51.976;7.594;2023-07-13T08:05:07;100851.53;;;23.84;55.87
20889;BME280;10604;51.976;7.594;2023-07-13T08:07:33;100855.56;;;23.57;54.07
20889;BME280;10604;51.976;7.594;2023-07-13T08:09:58;100849.22;;;23.02;56.50
20889;BME280;10604;51.976;7.594;2023-07-13T08:12:24;100859.38;;;23.21;57.09
20889;BME280;10604;51.976;7.594;2023-07-13T08:14:49;100852.38;;;24.16;55.42
20889;BME280;10604;51.976;7.594;2023-07-13T08:17:18;100857.81;;;24.05;55.05
20889;BME280;10604;51.976;7.594;2023-07-13T08:19:43;100863.94;;;24.07;54.92
20889;BME280;10604;51.976;7.594;2023-07-13T08:22:08;100860.53;;;24.05;53.05
20889;BME280;10604;51.976;7.594;2023-07-13T08:24:34;100850.59;;;23.73;54.16
20889;BME280;10604;51.976;7.594;2023-07-13T08:26:59;100842.78;;;23.70;55.18
20889;BME280;10604;51.976;7.594;2023-07-13T08:29:24;100843.97;;;23.77;55.10
20889;BME280;10604;51.976;7.594;2023-07-13T08:31:50;100849.25;;;24.32;53.74
20889;BME280;10604;51.976;7.594;2023-07-13T08:34:15;100847.38;;;24.43;54.80
20889;BME280;10604;51.976;7.594;2023-07-13T08:36:40;100849.66;;;24.27;54.41
20889;BME280;10604;51.976;7.594;2023-07-13T08:39:05;100850.84;;;24.34;52.81
20889;BME280;10604;51.976;7.594;2023-07-13T08:41:31;100839.50;;;24.61;53.56
20889;BME280;10604;51.976;7.594;2023-07-13T08:43:58;100848.22;;;24.65;52.79
20889;BME280;10604;51.976;7.594;2023-07-13T08:46:35;100848.63;;;24.07;54.36
20889;BME280;10604;51.976;7.594;2023-07-13T08:49:02;100850.88;;;24.23;54.41
20889;BME280;10604;51.976;7.594;2023-07-13T08:51:36;100849.66;;;24.27;53.93
20889;BME280;10604;51.976;7.594;2023-07-13T08:54:05;100839.19;;;24.54;53.23
20889;BME280;10604;51.976;7.594;2023-07-13T08:56:34;100838.81;;;25.29;53.82
20889;BME280;10604;51.976;7.594;2023-07-13T08:59:09;100835.47;;;25.47;52.74
20889;BME280;10604;51.976;7.594;2023-07-13T09:01:58;100841.50;;;25.79;50.19
20889;BME280;10604;51.976;7.594;2023-07-13T09:04:28;100840.06;;;25.94;48.12
20889;BME280;10604;51.976;7.594;2023-07-13T09:09:36;100840.66;;;25.69;48.58
20889;BME280;10604;51.976;7.594;2023-07-13T09:14:42;100846.47;;;26.22;49.01
20889;BME280;10604;51.976;7.594;2023-07-13T09:17:17;100846.28;;;26.62;48.01
20889;BME280;10604;51.976;7.594;2023-07-13T09:19:42;100844.38;;;26.06;47.83
20889;BME280;10604;51.976;7.594;2023-07-13T09:22:10;100836.09;;;26.37;48.56
20889;BME280;10604;51.976;7.594;2023-07-13T09:24:52;100843.38;;;26.27;47.96
20889;BME280;10604;51.976;7.594;2023-07-13T09:27:23;100838.38;;;25.64;48.60
20889;BME280;10604;51.976;7.594;2023-07-13T09:29:51;100850.34;;;26.00;47.77
20889;BME280;10604;51.976;7.594;2023-07-13T09:32:19;100846.06;;;25.88;47.02
20889;BME280;10604;51.976;7.594;2023-07-13T09:34:51;100840.78;;;25.96;47.22
20889;BME280;10604;51.976;7.594;2023-07-13T09:37:17;100840.94;;;26.04;47.11
20889;BME280;10604;51.976;7.594;2023-07-13T09:39:43;100849.91;;;25.95;46.35
20889;BME280;10604;51.976;7.594;2023-07-13T09:42:16;100848.06;;;26.05;47.43
20889;BME280;10604;51.976;7.594;2023-07-13T09:47:23;100846.59;;;27.33;46.18
20889;BME280;10604;51.976;7.594;2023-07-13T09:50:00;100838.72;;;27.12;45.11
20889;BME280;10604;51.976;7.594;2023-07-13T09:52:26;100843.47;;;26.16;46.86
20889;BME280;10604;51.976;7.594;2023-07-13T09:54:52;100843.13;;;25.51;46.60
20889;BME280;10604;51.976;7.594;2023-07-13T09:57:23;100855.88;;;25.30;46.94
20889;BME280;10604;51.976;7.594;2023-07-13T09:59:51;100850.09;;;25.34;47.32
20889;BME280;10604;51.976;7.594;2023-07-13T10:02:27;100860.75;;;25.46;47.52
20889;BME280;10604;51.976;7.594;2023-07-13T10:04:57;100852.81;;;25.54;48.00
20889;BME280;10604;51.976;7.594;2023-07-13T10:07:23;100861.72;;;26.13;47.27
20889;BME280;10604;51.976;7.594;2023-07-13T10:09:56;100846.50;;;26.98;44.54
20889;BME280;10604;51.976;7.594;2023-07-13T10:12:21;100847.09;;;28.53;44.11
20889;BME280;10604;51.976;7.594;2023-07-13T10:14:50;100857.06;;;27.73;44.41
20889;BME280;10604;51.976;7.594;2023-07-13T10:17:15;100864.72;;;26.86;44.47
20889;BME280;10604;51.976;7.594;2023-07-13T10:19:44;100851.97;;;26.78;44.09
20889;BME280;10604;51.976;7.594;2023-07-13T10:24:43;100853.06;;;26.85;44.87
20889;BME280;10604;51.976;7.594;2023-07-13T10:29:38;100856.16;;;27.00;43.91
20889;BME280;10604;51.976;7.594;2023-07-13T10:32:08;100855.47;;;27.25;44.85
20889;BME280;10604;51.976;7.594;2023-07-13T10:34:34;100858.91;;;27.27;43.75
20889;BME280;10604;51.976;7.594;2023-07-13T10:37:00;100862.47;;;27.55;42.72
20889;BME280;10604;51.976;7.594;2023-07-13T10:39:26;100859.97;;;28.51;41.38
20889;BME280;10604;51.976;7.594;2023-07-13T10:41:58;100862.91;;;29.43;38.99
20889;BME280;10604;51.976;7.594;2023-07-13T10:44:26;100880.09;;;28.66;39.16
20889;BME280;10604;51.976;7.594;2023-07-13T10:46:54;100880.50;;;28.27;39.77
20889;BME280;10604;51.976;7.594;2023-07-13T10:49:20;100873.25;;;27.65;41.45
20889;BME280;10604;51.976;7.594;2023-07-13T10:51:47;100869.66;;;28.27;40.33
20889;BME280;10604;51.976;7.594;2023-07-13T10:54:20;100864.44;;;28.34;39.79
20889;BME280;10604;51.976;7.594;2023-07-13T10:56:48;100863.75;;;29.09;39.63
20889;BME280;10604;51.976;7.594;2023-07-13T10:59:18;100865.63;;;28.75;40.15
20889;BME280;10604;51.976;7.594;2023-07-13T11:04:21;100878.47;;;26.65;43.37
20889;BME280;10604;51.976;7.594;2023-07-13T11:06:50;100882.38;;;25.36;43.91
20889;BME280;10604;51.976;7.594;2023-07-13T11:09:36;100875.97;;;25.47;43.93
20889;BME280;10604;51.976;7.594;2023-07-13T11:12:06;100867.66;;;25.19;46.00
20889;BME280;10604;51.976;7.594;2023-07-13T11:14:42;100868.00;;;26.33;46.06
20889;BME280;10604;51.976;7.594;2023-07-13T11:19:51;100864.03;;;28.72;39.71
20889;BME280;10604;51.976;7.594;2023-07-13T11:22:21;100865.59;;;28.31;40.04
20889;BME280;10604;51.976;7.594;2023-07-13T11:24:48;100875.78;;;28.99;39.46
20889;BME280;10604;51.976;7.594;2023-07-13T11:30:07;100858.19;;;28.85;38.67
20889;BME280;10604;51.976;7.594;2023-07-13T11:32:32;100868.56;;;27.85;39.20
20889;BME280;10604;51.976;7.594;2023-07-13T11:34:58;100865.38;;;27.89;38.69
20889;BME280;10604;51.976;7.594;2023-07-13T11:37:23;100869.00;;;27.62;40.02
20889;BME280;10604;51.976;7.594;2023-07-13T11:39:49;100869.97;;;28.50;39.59
20889;BME280;10604;51.976;7.594;2023-07-13T11:42:17;100863.47;;;27.54;39.49
20889;BME280;10604;51.976;7.594;2023-07-13T11:44:47;100857.22;;;27.17;40.66
20889;BME280;10604;51.976;7.594;2023-07-13T11:47:20;100860.81;;;28.25;41.01
20889;BME280;10604;51.976;7.594;2023-07-13T11:49:52;100853.03;;;29.08;39.85
20889;BME280;10604;51.976;7.594;2023-07-13T11:52:19;100865.19;;;27.73;40.30
20889;BME280;10604;51.976;7.594;2023-07-13T11:57:36;100864.59;;;27.97;39.69
20889;BME280;10604;51.976;7.594;2023-07-13T12:00:09;100863.16;;;28.20;40.69
20889;BME280;10604;51.976;7.594;2023-07-13T12:02:37;100842.34;;;29.06;38.35
20889;BME280;10604;51.976;7.594;2023-07-13T12:05:03;100850.88;;;29.11;38.27
20889;BME280;10604;51.976;7.594;2023-07-13T12:07:30;100859.16;;;27.34;39.24
20889;BME280;10604;51.976;7.594;2023-07-13T12:10:00;100859.94;;;27.89;40.52
20889;BME280;10604;51.976;7.594;2023-07-13T12:12:28;100852.03;;;28.31;38.60
20889;BME280;10604;51.976;7.594;2023-07-13T12:14:54;100858.78;;;27.92;39.26
20889;BME280;10604;51.976;7.594;2023-07-13T12:17:21;100851.50;;;27.75;40.02
20889;BME280;10604;51.976;7.594;2023-07-13T12:19:47;100849.25;;;27.15;41.21
20889;BME280;10604;51.976;7.594;2023-07-13T12:22:13;100865.47;;;28.15;39.30
20889;BME280;10604;51.976;7.594;2023-07-13T12:24:39;100851.19;;;27.78;36.93
20889;BME280;10604;51.976;7.594;2023-07-13T12:27:05;100862.97;;;27.41;39.03
20889;BME280;10604;51.976;7.594;2023-07-13T12:29:31;100845.69;;;27.42;38.80
20889;BME280;10604;51.976;7.594;2023-07-13T12:31:57;100853.19;;;26.94;39.60
20889;BME280;10604;51.976;7.594;2023-07-13T12:34:24;100855.44;;;26.23;42.42
20889;BME280;10604;51.976;7.594;2023-07-13T12:39:16;100877.66;;;25.78;43.01
20889;BME280;10604;51.976;7.594;2023-07-13T12:41:42;100866.31;;;25.54;42.63
20889;BME280;10604;51.976;7.594;2023-07-13T12:44:14;100866.06;;;25.57;42.83
20889;BME280;10604;51.976;7.594;2023-07-13T12:46:50;100875.94;;;25.96;43.25
20889;BME280;10604;51.976;7.594;2023-07-13T12:49:23;100864.31;;;26.25;41.65
20889;BME280;10604;51.976;7.594;2023-07-13T12:51:50;100873.19;;;27.20;40.78
20889;BME280;10604;51.976;7.594;2023-07-13T12:54:17;100869.31;;;27.50;39.16
20889;BME280;10604;51.976;7.594;2023-07-13T12:56:42;100866.97;;;27.10;39.52
20889;BME280;10604;51.976;7.594;2023-07-13T12:59:11;100876.81;;;26.45;40.89
20889;BME280;10604;51.976;7.594;2023-07-13T13:01:40;100887.50;;;25.49;43.36
20889;BME280;10604;51.976;7.594;2023-07-13T13:04:08;100893.56;;;25.62;43.60
20889;BME280;10604;51.976;7.594;2023-07-13T13:06:36;100899.66;;;25.24;44.98
20889;BME280;10604;51.976;7.594;2023-07-13T13:09:02;100893.91;;;25.08;44.03
20889;BME280;10604;51.976;7.594;2023-07-13T13:11:29;100898.22;;;25.20;43.23
20889;BME280;10604;51.976;7.594;2023-07-13T13:13:55;100899.25;;;24.98;43.07
20889;BME280;10604;51.976;7.594;2023-07-13T13:18:45;100893.94;;;25.17;43.76